createdAt,value
2019-01-30T00:00:49.330Z,34.30
2019-01-30T00:01:49.293Z,33.90
2019-01-30T00:02:49.253Z,34.00
2019-01-30T00:03:49.214Z,34.10
2019-01-30T00:04:49.177Z,34.90
2019-01-30T00:05:49.138Z,35.60
2019-01-30T00:06:49.098Z,34.10
2019-01-30T00:07:49.061Z,33.70
2019-01-30T00:08:49.023Z,37.20
2019-01-30T00:09:48.984Z,33.00
2019-01-30T00:10:48.946Z,32.50
2019-01-30T00:11:48.906Z,32.70
2019-01-30T00:12:48.868Z,33.50
2019-01-30T00:13:48.832Z,32.10
2019-01-30T00:14:48.881Z,35.80
2019-01-30T00:15:56.207Z,33.20
2019-01-30T00:16:48.715Z,32.60
2019-01-30T00:17:48.677Z,33.50
2019-01-30T00:18:48.636Z,33.80
2019-01-30T00:19:48.599Z,32.20
2019-01-30T00:20:48.559Z,32.10
2019-01-30T00:21:48.521Z,33.00
2019-01-30T00:22:48.481Z,33.90
2019-01-30T00:23:48.445Z,33.20
2019-01-30T00:24:48.406Z,34.30
2019-01-30T00:25:48.367Z,35.90
2019-01-30T00:26:48.327Z,35.20
2019-01-30T00:27:48.289Z,36.30
2019-01-30T00:28:48.251Z,35.80
2019-01-30T00:29:48.213Z,32.60
2019-01-30T00:30:48.173Z,36.00
2019-01-30T00:31:48.135Z,34.90
2019-01-30T00:32:48.098Z,33.10
2019-01-30T00:33:48.058Z,33.70
2019-01-30T00:34:48.019Z,32.60
2019-01-30T00:35:47.984Z,32.90
2019-01-30T00:36:47.942Z,32.00
2019-01-30T00:37:47.904Z,33.00
2019-01-30T00:38:47.864Z,31.80
2019-01-30T00:39:47.826Z,33.50
2019-01-30T00:40:47.787Z,33.20
2019-01-30T00:41:47.749Z,31.60
2019-01-30T00:42:47.711Z,32.90
2019-01-30T00:43:47.672Z,32.50
2019-01-30T00:44:47.632Z,32.40
2019-01-30T00:45:47.594Z,30.30
2019-01-30T00:46:47.554Z,32.70
2019-01-30T00:47:47.517Z,34.50
2019-01-30T00:48:47.487Z,33.40
2019-01-30T00:49:47.440Z,36.20
2019-01-30T00:50:47.400Z,34.80
2019-01-30T00:51:47.365Z,34.20
2019-01-30T00:52:47.324Z,34.70
2019-01-30T00:53:47.284Z,33.30
2019-01-30T00:54:47.246Z,34.20
2019-01-30T00:55:47.206Z,34.60
2019-01-30T00:56:47.168Z,34.80
2019-01-30T00:57:47.128Z,32.60
2019-01-30T00:58:47.090Z,34.10
2019-01-30T00:59:47.051Z,32.50
2019-01-30T01:00:47.014Z,31.90
2019-01-30T01:01:46.974Z,29.40
2019-01-30T01:02:46.937Z,32.40
2019-01-30T01:03:46.902Z,32.60
2019-01-30T01:04:46.857Z,30.10
2019-01-30T01:05:46.820Z,32.90
2019-01-30T01:06:46.780Z,31.00
2019-01-30T01:07:46.741Z,31.60
2019-01-30T01:08:46.703Z,32.80
2019-01-30T01:09:46.665Z,29.80
2019-01-30T01:10:46.626Z,33.80
2019-01-30T01:11:46.586Z,32.60
2019-01-30T01:12:46.548Z,33.50
2019-01-30T01:13:46.518Z,33.00
2019-01-30T01:14:46.471Z,33.70
2019-01-30T01:15:46.431Z,33.00
2019-01-30T01:16:46.392Z,31.80
2019-01-30T01:17:46.354Z,30.60
2019-01-30T01:18:46.315Z,32.30
2019-01-30T01:19:46.276Z,33.30
2019-01-30T01:20:46.237Z,33.50
2019-01-30T01:21:46.200Z,33.60
2019-01-30T01:22:46.160Z,32.40
2019-01-30T01:23:46.122Z,33.20
2019-01-30T01:24:46.083Z,34.20
2019-01-30T01:25:46.044Z,32.10
2019-01-30T01:26:46.003Z,32.00
2019-01-30T01:27:45.964Z,32.00
2019-01-30T01:28:45.925Z,31.60
2019-01-30T01:29:45.887Z,33.90
2019-01-30T01:30:45.848Z,33.10
2019-01-30T01:31:45.812Z,33.00
2019-01-30T01:32:46.869Z,33.40
2019-01-30T01:33:45.732Z,35.30
2019-01-30T01:34:45.692Z,30.40
2019-01-30T01:35:45.653Z,30.30
2019-01-30T01:36:45.617Z,33.10
2019-01-30T01:37:45.578Z,32.70
2019-01-30T01:38:45.538Z,34.10
2019-01-30T01:39:45.497Z,33.00
2019-01-30T01:40:45.460Z,33.80
2019-01-30T01:41:45.420Z,32.40
2019-01-30T01:42:45.380Z,31.70
2019-01-30T01:43:45.342Z,32.50
2019-01-30T01:44:45.303Z,31.20
2019-01-30T01:45:45.265Z,29.50
2019-01-30T01:46:45.226Z,32.10
2019-01-30T01:47:45.190Z,33.30
2019-01-30T01:48:45.148Z,34.60
2019-01-30T01:49:45.170Z,33.70
2019-01-30T01:50:45.070Z,34.40
2019-01-30T01:51:45.030Z,31.90
2019-01-30T01:52:44.992Z,31.60
2019-01-30T01:53:44.956Z,32.90
2019-01-30T01:54:44.914Z,32.40
2019-01-30T01:55:44.875Z,32.20
2019-01-30T01:56:44.836Z,32.10
2019-01-30T01:57:44.798Z,33.40
2019-01-30T01:58:44.758Z,32.50
2019-01-30T01:59:44.720Z,32.70
2019-01-30T02:00:44.680Z,31.20
2019-01-30T02:01:44.642Z,32.40
2019-01-30T02:02:44.603Z,34.40
2019-01-30T02:03:44.563Z,32.40
2019-01-30T02:04:44.527Z,33.20
2019-01-30T02:05:44.489Z,32.80
2019-01-30T02:06:44.448Z,32.50
2019-01-30T02:07:44.409Z,32.90
2019-01-30T02:08:44.372Z,29.20
2019-01-30T02:09:44.331Z,30.20
2019-01-30T02:10:44.292Z,30.60
2019-01-30T02:11:44.252Z,30.10
2019-01-30T02:12:44.214Z,31.80
2019-01-30T02:13:44.175Z,31.40
2019-01-30T02:14:44.138Z,30.70
2019-01-30T02:15:44.098Z,31.20
2019-01-30T02:16:44.058Z,31.40
2019-01-30T02:17:44.021Z,30.90
2019-01-30T02:18:43.980Z,30.90
2019-01-30T02:19:43.941Z,32.20
2019-01-30T02:20:43.906Z,30.70
2019-01-30T02:21:43.865Z,31.00
2019-01-30T02:22:43.824Z,29.60
2019-01-30T02:23:43.785Z,30.90
2019-01-30T02:24:43.748Z,28.60
2019-01-30T02:25:43.710Z,31.30
2019-01-30T02:26:43.670Z,30.50
2019-01-30T02:27:43.640Z,31.40
2019-01-30T02:28:43.592Z,30.60
2019-01-30T02:29:43.554Z,30.50
2019-01-30T02:30:47.599Z,31.00
2019-01-30T02:31:43.476Z,31.80
2019-01-30T02:32:43.436Z,30.10
2019-01-30T02:33:43.397Z,30.50
2019-01-30T02:34:43.362Z,32.20
2019-01-30T02:35:43.321Z,29.80
2019-01-30T02:36:43.283Z,29.50
2019-01-30T02:37:43.242Z,27.30
2019-01-30T02:38:43.209Z,28.90
2019-01-30T02:39:43.164Z,30.30
2019-01-30T02:40:43.127Z,30.60
2019-01-30T02:41:43.088Z,30.70
2019-01-30T02:42:43.048Z,30.10
2019-01-30T02:43:43.010Z,32.10
2019-01-30T02:44:42.973Z,29.80
2019-01-30T02:45:42.931Z,30.50
2019-01-30T02:46:42.894Z,28.60
2019-01-30T02:47:42.854Z,28.70
2019-01-30T02:48:42.816Z,31.20
2019-01-30T02:49:42.776Z,27.70
2019-01-30T02:50:42.743Z,29.10
2019-01-30T02:51:42.699Z,29.10
2019-01-30T02:52:42.665Z,28.60
2019-01-30T02:53:42.622Z,32.80
2019-01-30T02:54:42.581Z,30.40
2019-01-30T02:55:42.543Z,32.60
2019-01-30T02:56:42.504Z,35.80
2019-01-30T02:57:42.467Z,34.00
2019-01-30T02:58:42.427Z,34.00
2019-01-30T02:59:42.389Z,32.00
2019-01-30T03:00:42.349Z,32.90
2019-01-30T03:01:42.309Z,31.70
2019-01-30T03:02:42.270Z,32.80
2019-01-30T03:03:42.232Z,33.40
2019-01-30T03:04:42.194Z,33.20
2019-01-30T03:05:42.155Z,33.50
2019-01-30T03:06:42.115Z,33.00
2019-01-30T03:07:42.188Z,34.60
2019-01-30T03:08:42.037Z,33.20
2019-01-30T03:09:42.001Z,33.10
2019-01-30T03:10:41.958Z,34.40
2019-01-30T03:11:41.922Z,33.90
2019-01-30T03:12:41.886Z,33.70
2019-01-30T03:13:41.844Z,32.80
2019-01-30T03:14:41.803Z,32.30
2019-01-30T03:15:41.768Z,34.60
2019-01-30T03:16:41.727Z,32.80
2019-01-30T03:17:41.689Z,31.90
2019-01-30T03:18:41.648Z,32.80
2019-01-30T03:19:41.610Z,33.20
2019-01-30T03:20:41.572Z,33.20
2019-01-30T03:21:41.535Z,33.20
2019-01-30T03:22:41.500Z,32.60
2019-01-30T03:23:41.455Z,32.40
2019-01-30T03:24:41.419Z,33.60
2019-01-30T03:25:41.379Z,33.20
2019-01-30T03:26:41.339Z,32.60
2019-01-30T03:27:41.301Z,32.00
2019-01-30T03:28:41.264Z,30.10
2019-01-30T03:29:41.225Z,31.70
2019-01-30T03:30:41.192Z,30.20
2019-01-30T03:31:41.164Z,30.40
2019-01-30T03:32:41.107Z,32.20
2019-01-30T03:33:41.069Z,30.90
2019-01-30T03:34:41.027Z,33.00
2019-01-30T03:35:40.994Z,31.30
2019-01-30T03:36:40.951Z,31.70
2019-01-30T03:37:40.916Z,30.90
2019-01-30T03:38:40.873Z,30.90
2019-01-30T03:39:40.840Z,30.90
2019-01-30T03:40:40.796Z,29.90
2019-01-30T03:41:40.757Z,30.10
2019-01-30T03:42:40.850Z,30.50
2019-01-30T03:43:40.688Z,29.20
2019-01-30T03:44:40.644Z,29.80
2019-01-30T03:45:40.602Z,29.70
2019-01-30T03:46:40.563Z,29.60
2019-01-30T03:47:40.528Z,28.80
2019-01-30T03:48:40.487Z,28.70
2019-01-30T03:49:40.448Z,28.50
2019-01-30T03:50:40.409Z,29.00
2019-01-30T03:51:40.372Z,28.60
2019-01-30T03:52:40.331Z,29.30
2019-01-30T03:53:40.293Z,29.60
2019-01-30T03:54:40.255Z,29.40
2019-01-30T03:55:40.215Z,29.20
2019-01-30T03:56:40.175Z,29.10
2019-01-30T03:57:40.143Z,30.40
2019-01-30T03:58:40.098Z,28.90
2019-01-30T03:59:40.061Z,26.90
2019-01-30T04:00:40.035Z,28.50
2019-01-30T04:01:39.985Z,29.30
2019-01-30T04:02:39.943Z,29.40
2019-01-30T04:03:39.909Z,26.90
2019-01-30T04:04:39.866Z,27.10
2019-01-30T04:05:39.828Z,28.40
2019-01-30T04:06:39.788Z,26.80
2019-01-30T04:07:39.748Z,28.70
2019-01-30T04:08:39.710Z,29.00
2019-01-30T04:09:39.671Z,28.20
2019-01-30T04:10:39.633Z,29.00
2019-01-30T04:11:39.594Z,28.20
2019-01-30T04:12:39.555Z,28.00
2019-01-30T04:13:39.517Z,28.80
2019-01-30T04:14:39.477Z,28.20
2019-01-30T04:15:39.640Z,28.60
2019-01-30T04:16:39.400Z,27.60
2019-01-30T04:17:39.425Z,28.80
2019-01-30T04:18:39.322Z,29.20
2019-01-30T04:19:39.285Z,29.60
2019-01-30T04:20:39.245Z,28.10
2019-01-30T04:21:39.208Z,27.60
2019-01-30T04:22:39.166Z,28.20
2019-01-30T04:23:39.133Z,28.00
2019-01-30T04:24:39.090Z,28.20
2019-01-30T04:25:39.053Z,28.00
2019-01-30T04:26:39.014Z,29.10
2019-01-30T04:27:38.976Z,29.40
2019-01-30T04:28:38.936Z,27.90
2019-01-30T04:29:38.898Z,29.00
2019-01-30T04:30:38.856Z,28.70
2019-01-30T04:31:38.819Z,29.10
2019-01-30T04:32:38.780Z,28.30
2019-01-30T04:33:38.741Z,28.70
2019-01-30T04:34:38.703Z,28.90
2019-01-30T04:35:38.663Z,29.30
2019-01-30T04:36:38.624Z,29.20
2019-01-30T04:37:38.592Z,28.40
2019-01-30T04:38:38.545Z,27.50
2019-01-30T04:39:38.508Z,27.50
2019-01-30T04:40:38.468Z,29.50
2019-01-30T04:41:38.447Z,29.10
2019-01-30T04:42:38.393Z,29.50
2019-01-30T04:43:38.353Z,28.20
2019-01-30T04:44:38.357Z,28.20
2019-01-30T04:45:38.276Z,28.70
2019-01-30T04:46:38.236Z,29.80
2019-01-30T04:47:38.198Z,29.70
2019-01-30T04:48:38.159Z,29.10
2019-01-30T04:49:38.121Z,29.70
2019-01-30T04:50:38.082Z,30.00
2019-01-30T04:51:38.043Z,30.10
2019-01-30T04:52:38.004Z,29.80
2019-01-30T04:53:37.964Z,30.10
2019-01-30T04:54:37.924Z,29.60
2019-01-30T04:55:37.886Z,29.40
2019-01-30T04:56:37.847Z,31.50
2019-01-30T04:57:37.810Z,30.00
2019-01-30T04:58:37.771Z,32.20
2019-01-30T04:59:37.731Z,31.50
2019-01-30T05:00:37.694Z,30.90
2019-01-30T05:01:49.255Z,30.20
2019-01-30T05:02:37.614Z,30.90
2019-01-30T05:03:37.576Z,33.10
2019-01-30T05:04:37.539Z,31.00
2019-01-30T05:05:37.498Z,32.00
2019-01-30T05:06:37.459Z,31.90
2019-01-30T05:07:37.425Z,31.60
2019-01-30T05:08:37.384Z,31.70
2019-01-30T05:09:37.342Z,31.80
2019-01-30T05:10:37.306Z,31.80
2019-01-30T05:11:37.266Z,34.10
2019-01-30T05:12:37.228Z,33.80
2019-01-30T05:13:37.188Z,35.30
2019-01-30T05:14:37.151Z,34.00
2019-01-30T05:15:37.111Z,33.30
2019-01-30T05:16:37.073Z,31.30
2019-01-30T05:17:37.032Z,32.00
2019-01-30T05:18:37.002Z,34.10
2019-01-30T05:19:36.957Z,33.20
2019-01-30T05:20:36.915Z,33.90
2019-01-30T05:21:36.877Z,34.00
2019-01-30T05:22:36.838Z,34.10
2019-01-30T05:23:36.801Z,33.50
2019-01-30T05:24:36.766Z,35.20
2019-01-30T05:25:36.723Z,32.30
2019-01-30T05:26:36.682Z,34.90
2019-01-30T05:27:36.647Z,33.10
2019-01-30T05:28:36.605Z,32.30
2019-01-30T05:29:36.567Z,32.90
2019-01-30T05:30:36.528Z,32.60
2019-01-30T05:31:36.489Z,32.80
2019-01-30T05:32:36.454Z,32.60
2019-01-30T05:33:36.411Z,31.00
2019-01-30T05:34:36.372Z,33.10
2019-01-30T05:35:36.334Z,30.30
2019-01-30T05:36:36.295Z,30.60
2019-01-30T05:37:36.255Z,31.80
2019-01-30T05:38:36.218Z,32.40
2019-01-30T05:39:36.180Z,31.60
2019-01-30T05:40:36.143Z,30.80
2019-01-30T05:41:36.101Z,30.50
2019-01-30T05:42:36.060Z,31.00
2019-01-30T05:43:36.024Z,31.10
2019-01-30T05:44:35.985Z,29.60
2019-01-30T05:45:35.945Z,30.60
2019-01-30T05:46:35.910Z,29.70
2019-01-30T05:47:35.867Z,31.80
2019-01-30T05:48:35.830Z,31.10
2019-01-30T05:49:35.790Z,30.50
2019-01-30T05:50:35.752Z,30.80
2019-01-30T05:51:35.713Z,30.10
2019-01-30T05:52:35.676Z,29.80
2019-01-30T05:53:35.637Z,28.60
2019-01-30T05:54:35.596Z,29.20
2019-01-30T05:55:35.556Z,29.50
2019-01-30T05:56:35.518Z,30.20
2019-01-30T05:57:35.480Z,30.30
2019-01-30T05:58:35.441Z,30.50
2019-01-30T05:59:35.402Z,29.50
2019-01-30T06:00:35.363Z,31.70
2019-01-30T06:01:35.324Z,29.60
2019-01-30T06:02:35.285Z,31.00
2019-01-30T06:03:35.246Z,30.10
2019-01-30T06:04:35.208Z,29.70
2019-01-30T06:05:35.169Z,30.00
2019-01-30T06:06:35.131Z,28.90
2019-01-30T06:07:35.094Z,28.00
2019-01-30T06:08:35.053Z,29.70
2019-01-30T06:09:35.015Z,28.50
2019-01-30T06:10:34.979Z,29.20
2019-01-30T06:11:34.945Z,28.70
2019-01-30T06:12:34.898Z,28.90
2019-01-30T06:13:34.861Z,29.60
2019-01-30T06:14:34.821Z,28.40
2019-01-30T06:15:34.785Z,29.50
2019-01-30T06:16:34.743Z,34.00
2019-01-30T06:17:34.703Z,32.70
2019-01-30T06:18:34.666Z,31.30
2019-01-30T06:19:34.628Z,31.20
2019-01-30T06:20:34.589Z,30.80
2019-01-30T06:21:34.550Z,30.50
2019-01-30T06:22:34.513Z,29.70
2019-01-30T06:23:34.474Z,29.40
2019-01-30T06:24:34.436Z,31.30
2019-01-30T06:25:34.398Z,29.70
2019-01-30T06:26:34.357Z,30.10
2019-01-30T06:27:34.318Z,29.30
2019-01-30T06:28:34.282Z,29.20
2019-01-30T06:29:34.241Z,28.80
2019-01-30T06:30:34.203Z,28.90
2019-01-30T06:31:34.164Z,28.50
2019-01-30T06:32:34.125Z,29.80
2019-01-30T06:33:34.086Z,29.60
2019-01-30T06:34:34.047Z,30.80
2019-01-30T06:35:34.010Z,33.50
2019-01-30T06:36:33.970Z,29.30
2019-01-30T06:37:33.935Z,27.90
2019-01-30T06:38:33.892Z,28.00
2019-01-30T06:39:33.855Z,29.20
2019-01-30T06:40:33.817Z,29.50
2019-01-30T06:41:33.777Z,29.20
2019-01-30T06:42:33.742Z,29.20
2019-01-30T06:43:33.702Z,26.60
2019-01-30T06:44:33.663Z,27.40
2019-01-30T06:45:33.624Z,27.40
2019-01-30T06:46:33.584Z,27.40
2019-01-30T06:47:33.547Z,27.40
2019-01-30T06:48:33.510Z,27.30
2019-01-30T06:49:33.471Z,28.70
2019-01-30T06:50:33.430Z,28.10
2019-01-30T06:51:33.393Z,28.20
2019-01-30T06:52:33.354Z,28.50
2019-01-30T06:53:33.317Z,28.50
2019-01-30T06:54:33.276Z,27.30
2019-01-30T06:55:33.239Z,30.90
2019-01-30T06:56:33.200Z,27.40
2019-01-30T06:57:33.163Z,26.00
2019-01-30T06:58:33.123Z,26.40
2019-01-30T06:59:33.084Z,28.00
2019-01-30T07:00:33.047Z,25.80
2019-01-30T07:01:33.010Z,26.30
2019-01-30T07:02:32.969Z,26.70
2019-01-30T07:03:32.934Z,25.50
2019-01-30T07:04:32.892Z,26.20
2019-01-30T07:05:32.855Z,26.80
2019-01-30T07:06:32.815Z,26.80
2019-01-30T07:07:32.779Z,26.80
2019-01-30T07:08:32.740Z,28.40
2019-01-30T07:09:32.701Z,28.60
2019-01-30T07:10:32.662Z,27.30
2019-01-30T07:11:32.633Z,27.70
2019-01-30T07:12:32.585Z,25.50
2019-01-30T07:13:32.548Z,25.80
2019-01-30T07:14:32.507Z,25.60
2019-01-30T07:15:32.620Z,24.00
2019-01-30T07:16:32.432Z,24.70
2019-01-30T07:17:32.393Z,23.90
2019-01-30T07:18:32.354Z,23.80
2019-01-30T07:19:32.317Z,23.20
2019-01-30T07:20:32.279Z,23.70
2019-01-30T07:21:32.240Z,22.20
2019-01-30T07:22:32.201Z,23.20
2019-01-30T07:23:32.162Z,22.80
2019-01-30T07:24:32.125Z,23.00
2019-01-30T07:25:32.089Z,25.60
2019-01-30T07:26:32.048Z,24.70
2019-01-30T07:27:32.009Z,24.80
2019-01-30T07:28:31.971Z,23.30
2019-01-30T07:29:31.944Z,24.10
2019-01-30T07:30:31.898Z,24.60
2019-01-30T07:31:31.856Z,23.10
2019-01-30T07:32:41.977Z,24.40
2019-01-30T07:33:31.779Z,22.10
2019-01-30T07:34:31.745Z,21.40
2019-01-30T07:35:31.703Z,22.90
2019-01-30T07:36:31.665Z,23.50
2019-01-30T07:37:31.630Z,22.90
2019-01-30T07:38:31.588Z,22.60
2019-01-30T07:39:31.551Z,24.60
2019-01-30T07:40:31.512Z,22.10
2019-01-30T07:41:31.475Z,22.80
2019-01-30T07:42:31.435Z,23.30
2019-01-30T07:43:31.397Z,22.70
2019-01-30T07:44:31.360Z,23.00
2019-01-30T07:45:31.321Z,22.50
2019-01-30T07:46:31.282Z,23.10
2019-01-30T07:47:31.245Z,22.10
2019-01-30T07:48:31.208Z,21.70
2019-01-30T07:49:31.171Z,21.80
2019-01-30T07:50:31.130Z,19.50
2019-01-30T07:51:31.099Z,20.70
2019-01-30T07:52:32.728Z,20.10
2019-01-30T07:53:31.019Z,20.30
2019-01-30T07:54:30.977Z,20.40
2019-01-30T07:55:30.943Z,20.20
2019-01-30T07:56:30.905Z,20.60
2019-01-30T07:57:30.866Z,18.80
2019-01-30T07:58:30.826Z,22.20
2019-01-30T07:59:32.043Z,20.30
2019-01-30T08:00:30.752Z,21.60
2019-01-30T08:01:30.713Z,20.00
2019-01-30T08:02:30.674Z,20.70
2019-01-30T08:03:30.637Z,21.70
2019-01-30T08:04:30.599Z,19.40
2019-01-30T08:05:30.562Z,21.10
2019-01-30T08:06:30.523Z,21.30
2019-01-30T08:07:30.484Z,21.00
2019-01-30T08:08:30.447Z,18.90
2019-01-30T08:09:30.410Z,19.80
2019-01-30T08:10:30.373Z,19.00
2019-01-30T08:11:32.956Z,18.30
2019-01-30T08:12:30.297Z,18.20
2019-01-30T08:13:30.259Z,18.30
2019-01-30T08:14:30.221Z,19.50
2019-01-30T08:15:30.182Z,18.30
2019-01-30T08:16:30.146Z,18.00
2019-01-30T08:17:30.108Z,20.40
2019-01-30T08:18:30.070Z,19.80
2019-01-30T08:19:30.033Z,17.80
2019-01-30T08:20:29.998Z,18.80
2019-01-30T08:21:29.962Z,19.00
2019-01-30T08:22:29.918Z,18.80
2019-01-30T08:23:30.182Z,18.40
2019-01-30T08:24:30.026Z,18.70
2019-01-30T08:25:30.208Z,19.40
2019-01-30T08:26:29.916Z,19.60
2019-01-30T08:27:30.187Z,18.40
2019-01-30T08:28:29.807Z,17.90
2019-01-30T08:29:29.661Z,19.30
2019-01-30T08:30:30.004Z,18.70
2019-01-30T08:31:29.611Z,19.10
2019-01-30T08:32:29.936Z,18.10
2019-01-30T08:33:29.507Z,19.60
2019-01-30T08:34:29.469Z,18.60
2019-01-30T08:35:29.431Z,18.80
2019-01-30T08:36:29.395Z,18.00
2019-01-30T08:37:29.358Z,17.00
2019-01-30T08:38:29.320Z,17.60
2019-01-30T08:39:29.282Z,17.90
2019-01-30T08:40:29.248Z,17.70
2019-01-30T08:41:29.208Z,18.10
2019-01-30T08:42:29.171Z,17.80
2019-01-30T08:43:29.133Z,17.70
2019-01-30T08:44:29.094Z,18.10
2019-01-30T08:45:29.057Z,16.40
2019-01-30T08:46:29.020Z,17.90
2019-01-30T08:47:28.983Z,18.70
2019-01-30T08:48:30.249Z,16.40
2019-01-30T08:49:28.909Z,16.00
2019-01-30T08:50:28.935Z,19.10
2019-01-30T08:51:28.835Z,17.30
2019-01-30T08:52:28.796Z,16.70
2019-01-30T08:53:28.764Z,17.50
2019-01-30T08:54:28.722Z,17.00
2019-01-30T08:55:28.685Z,16.30
2019-01-30T08:56:28.648Z,16.30
2019-01-30T08:57:28.611Z,15.50
2019-01-30T08:58:28.574Z,16.00
2019-01-30T08:59:28.537Z,15.70
2019-01-30T09:00:28.504Z,15.40
2019-01-30T09:01:28.465Z,14.10
2019-01-30T09:02:28.428Z,15.10
2019-01-30T09:03:28.390Z,16.40
2019-01-30T09:04:28.357Z,16.70
2019-01-30T09:05:28.318Z,15.80
2019-01-30T09:06:28.281Z,14.80
2019-01-30T09:07:28.248Z,14.50
2019-01-30T09:08:28.208Z,14.00
2019-01-30T09:09:28.173Z,14.80
2019-01-30T09:10:28.141Z,14.80
2019-01-30T09:11:28.099Z,13.80
2019-01-30T09:12:28.064Z,13.80
2019-01-30T09:13:28.027Z,14.80
2019-01-30T09:14:27.991Z,13.00
2019-01-30T09:15:27.957Z,13.50
2019-01-30T09:16:27.920Z,14.20
2019-01-30T09:17:27.886Z,13.20
2019-01-30T09:18:27.848Z,12.90
2019-01-30T09:19:27.813Z,14.20
2019-01-30T09:20:27.778Z,12.70
2019-01-30T09:21:27.744Z,13.70
2019-01-30T09:22:27.707Z,13.30
2019-01-30T09:23:27.672Z,13.90
2019-01-30T09:24:27.635Z,13.80
2019-01-30T09:25:27.686Z,14.60
2019-01-30T09:26:27.565Z,13.70
2019-01-30T09:27:27.529Z,14.60
2019-01-30T09:28:27.494Z,14.50
2019-01-30T09:29:27.458Z,12.90
2019-01-30T09:30:27.423Z,13.00
2019-01-30T09:31:27.388Z,13.90
2019-01-30T09:32:27.352Z,13.30
2019-01-30T09:33:27.317Z,13.60
2019-01-30T09:34:27.285Z,13.90
2019-01-30T09:35:27.249Z,14.20
2019-01-30T09:36:27.213Z,12.60
2019-01-30T09:37:27.373Z,13.10
2019-01-30T09:38:27.143Z,11.90
2019-01-30T09:39:27.110Z,11.60
2019-01-30T09:40:27.074Z,11.60
2019-01-30T09:41:27.042Z,11.10
2019-01-30T09:42:27.034Z,11.80
2019-01-30T09:43:26.984Z,11.80
2019-01-30T09:44:26.942Z,12.10
2019-01-30T09:45:26.909Z,10.80
2019-01-30T09:46:26.869Z,10.80
2019-01-30T09:47:26.877Z,10.70
2019-01-30T09:48:26.800Z,10.30
2019-01-30T09:49:26.766Z,10.60
2019-01-30T09:50:26.732Z,11.30
2019-01-30T09:51:26.697Z,10.40
2019-01-30T09:52:27.324Z,10.10
2019-01-30T09:53:26.646Z,11.30
2019-01-30T09:54:26.594Z,9.20
2019-01-30T09:55:26.559Z,9.40
2019-01-30T09:56:26.525Z,9.70
2019-01-30T09:57:26.491Z,9.80
2019-01-30T09:58:26.455Z,9.80
2019-01-30T09:59:26.420Z,9.80
2019-01-30T10:00:26.387Z,9.60
2019-01-30T10:01:26.353Z,9.70
2019-01-30T10:02:26.321Z,9.50
2019-01-30T10:03:35.698Z,9.40
2019-01-30T10:04:26.253Z,10.00
2019-01-30T10:05:26.216Z,8.90
2019-01-30T10:06:26.180Z,8.80
2019-01-30T10:07:26.149Z,8.50
2019-01-30T10:08:26.114Z,8.40
2019-01-30T10:09:26.079Z,8.70
2019-01-30T10:10:26.045Z,9.30
2019-01-30T10:11:26.010Z,7.90
2019-01-30T10:12:25.978Z,8.00
2019-01-30T10:13:25.941Z,8.80
2019-01-30T10:14:25.909Z,7.60
2019-01-30T10:15:25.915Z,7.70
2019-01-30T10:16:25.838Z,7.90
2019-01-30T10:17:25.805Z,7.60
2019-01-30T10:18:25.769Z,7.60
2019-01-30T10:19:25.739Z,7.60
2019-01-30T10:20:25.701Z,7.50
2019-01-30T10:21:25.668Z,7.80
2019-01-30T10:22:25.668Z,7.30
2019-01-30T10:23:25.597Z,7.40
2019-01-30T10:24:25.565Z,8.00
2019-01-30T10:25:25.529Z,7.40
2019-01-30T10:26:25.494Z,7.50
2019-01-30T10:27:25.459Z,6.80
2019-01-30T10:28:25.426Z,6.70
2019-01-30T10:29:25.392Z,7.10
2019-01-30T10:30:25.356Z,6.60
2019-01-30T10:31:25.322Z,7.20
2019-01-30T10:32:25.288Z,6.40
2019-01-30T10:33:25.253Z,6.80
2019-01-30T10:34:25.219Z,6.80
2019-01-30T10:35:25.187Z,6.60
2019-01-30T10:36:25.151Z,6.70
2019-01-30T10:37:25.114Z,6.50
2019-01-30T10:38:25.079Z,6.30
2019-01-30T10:39:25.045Z,6.90
2019-01-30T10:40:25.010Z,6.60
2019-01-30T10:41:24.975Z,5.80
2019-01-30T10:42:24.941Z,6.30
2019-01-30T10:43:24.907Z,7.00
2019-01-30T10:44:24.871Z,6.10
2019-01-30T10:45:24.838Z,6.40
2019-01-30T10:46:24.808Z,5.90
2019-01-30T10:47:24.769Z,5.80
2019-01-30T10:48:24.733Z,6.70
2019-01-30T10:49:24.698Z,6.50
2019-01-30T10:50:24.666Z,5.10
2019-01-30T10:51:24.628Z,6.50
2019-01-30T10:52:24.597Z,5.80
2019-01-30T10:53:24.561Z,5.80
2019-01-30T10:54:24.523Z,6.00
2019-01-30T10:55:24.490Z,6.50
2019-01-30T10:56:24.456Z,6.40
2019-01-30T10:57:24.517Z,5.30
2019-01-30T10:58:24.387Z,6.20
2019-01-30T10:59:26.631Z,5.90
2019-01-30T11:00:24.319Z,5.60
2019-01-30T11:01:24.282Z,5.00
2019-01-30T11:02:24.246Z,4.90
2019-01-30T11:03:24.212Z,5.70
2019-01-30T11:04:24.177Z,5.60
2019-01-30T11:05:24.143Z,5.40
2019-01-30T11:06:24.107Z,4.60
2019-01-30T11:07:24.074Z,5.30
2019-01-30T11:08:24.040Z,5.20
2019-01-30T11:09:24.004Z,5.40
2019-01-30T11:10:23.970Z,5.30
2019-01-30T11:11:23.935Z,5.20
2019-01-30T11:12:23.901Z,5.10
2019-01-30T11:13:23.873Z,5.00
2019-01-30T11:14:23.831Z,5.40
2019-01-30T11:15:23.797Z,4.90
2019-01-30T11:16:23.766Z,5.10
2019-01-30T11:17:23.731Z,4.40
2019-01-30T11:18:23.696Z,4.60
2019-01-30T11:19:23.661Z,4.20
2019-01-30T11:20:23.627Z,4.70
2019-01-30T11:21:23.594Z,4.50
2019-01-30T11:22:23.559Z,4.40
2019-01-30T11:23:23.524Z,4.60
2019-01-30T11:24:23.491Z,4.70
2019-01-30T11:25:23.457Z,4.50
2019-01-30T11:26:23.423Z,5.00
2019-01-30T11:27:23.389Z,5.00
2019-01-30T11:28:23.354Z,4.80
2019-01-30T11:29:23.325Z,3.50
2019-01-30T11:30:23.284Z,4.30
2019-01-30T11:31:23.252Z,4.30
2019-01-30T11:32:23.219Z,4.50
2019-01-30T11:33:23.185Z,4.20
2019-01-30T11:34:23.149Z,4.20
2019-01-30T11:35:23.117Z,3.90
2019-01-30T11:36:23.083Z,4.30
2019-01-30T11:37:23.049Z,4.20
2019-01-30T11:38:23.014Z,5.00
2019-01-30T11:39:22.979Z,4.60
2019-01-30T11:40:22.946Z,4.20
2019-01-30T11:41:22.911Z,4.70
2019-01-30T11:42:22.877Z,4.10
2019-01-30T11:43:22.843Z,4.10
2019-01-30T11:44:22.810Z,4.10
2019-01-30T11:45:22.775Z,4.20
2019-01-30T11:46:22.741Z,4.50
2019-01-30T11:47:22.706Z,4.20
2019-01-30T11:48:22.674Z,3.70
2019-01-30T11:49:22.638Z,4.20
2019-01-30T11:50:22.605Z,4.50
2019-01-30T11:51:22.570Z,4.50
2019-01-30T11:52:22.535Z,4.30
2019-01-30T11:53:22.503Z,4.20
2019-01-30T11:54:22.468Z,3.80
2019-01-30T11:55:22.435Z,4.00
2019-01-30T11:56:22.399Z,4.10
2019-01-30T11:57:22.366Z,4.40
2019-01-30T11:58:22.331Z,4.10
2019-01-30T11:59:22.296Z,4.00
2019-01-30T12:00:22.263Z,4.50
2019-01-30T12:01:22.227Z,4.00
2019-01-30T12:02:22.193Z,4.20
2019-01-30T12:03:22.160Z,4.40
2019-01-30T12:04:22.126Z,4.10
2019-01-30T12:05:22.090Z,4.30
2019-01-30T12:06:22.056Z,4.30
2019-01-30T12:07:22.022Z,4.40
2019-01-30T12:08:21.987Z,4.30
2019-01-30T12:09:21.955Z,3.90
2019-01-30T12:10:21.918Z,4.20
2019-01-30T12:11:21.884Z,4.60
2019-01-30T12:12:21.850Z,4.90
2019-01-30T12:13:21.814Z,4.10
2019-01-30T12:14:21.779Z,4.60
2019-01-30T12:15:21.748Z,4.30
2019-01-30T12:16:21.711Z,4.40
2019-01-30T12:17:21.679Z,4.00
2019-01-30T12:18:21.640Z,4.70
2019-01-30T12:19:21.605Z,5.00
2019-01-30T12:20:21.570Z,4.20
2019-01-30T12:21:21.537Z,4.50
2019-01-30T12:22:21.501Z,4.40
2019-01-30T12:23:21.465Z,4.30
2019-01-30T12:24:21.431Z,4.30
2019-01-30T12:25:21.401Z,4.50
2019-01-30T12:26:21.359Z,4.00
2019-01-30T12:27:21.326Z,4.80
2019-01-30T12:28:21.296Z,4.40
2019-01-30T12:29:21.255Z,4.30
2019-01-30T12:30:21.219Z,4.70
2019-01-30T12:31:21.185Z,5.10
2019-01-30T12:32:21.151Z,4.80
2019-01-30T12:33:21.115Z,5.30
2019-01-30T12:34:28.136Z,4.50
2019-01-30T12:35:21.046Z,4.60
2019-01-30T12:36:21.009Z,4.80
2019-01-30T12:37:20.975Z,4.70
2019-01-30T12:38:20.940Z,4.80
2019-01-30T12:39:20.904Z,4.90
2019-01-30T12:40:20.868Z,4.40
2019-01-30T12:41:20.835Z,4.90
2019-01-30T12:42:20.798Z,4.80
2019-01-30T12:43:20.763Z,5.00
2019-01-30T12:44:20.728Z,4.60
2019-01-30T12:45:20.694Z,4.80
2019-01-30T12:46:20.657Z,4.60
2019-01-30T12:47:20.622Z,5.10
2019-01-30T12:48:20.586Z,4.70
2019-01-30T12:49:20.553Z,4.70
2019-01-30T12:50:20.517Z,4.60
2019-01-30T12:51:20.482Z,4.20
2019-01-30T12:52:20.446Z,4.90
2019-01-30T12:53:20.412Z,4.80
2019-01-30T12:54:20.381Z,4.10
2019-01-30T12:55:20.343Z,5.00
2019-01-30T12:56:20.308Z,4.60
2019-01-30T12:57:20.274Z,4.30
2019-01-30T12:58:20.236Z,4.60